Time;durP1;ratioP1;P1;durP2;ratioP2;P2;SDS_P1;SDS_P2;PMS_P1;PMS_P2;Temp;Humidity;BMP_temperature;BMP_pressure;BME280_temperature;BME280_humidity;BME280_pressure;Samples;Min_cycle;Max_cycle;Signal;HPM_P1;HPM_P2
2022/10/30 00:00:49;;;;;;;;;;;;;;;20.47;58.87;101602.34;7407490;19;1528;-65
2022/10/30 00:03:18;;;;;;;;;;;;;;;20.48;58.67;101592.47;7411473;19;1584;-65
2022/10/30 00:05:48;;;;;;;;;;;;;;;20.42;58.58;101585.75;7409429;19;1518;-65
2022/10/30 00:08:18;;;;;;;;;;;;;;;20.46;58.81;101587.22;7410176;19;1493;-65
2022/10/30 00:10:49;;;;;;;;;;;;;;;20.45;58.59;101594.44;7407870;19;1866;-65
2022/10/30 00:13:17;;;;;;;;;;;;;;;20.46;58.73;101587.22;7410995;19;1399;-65
2022/10/30 00:15:48;;;;;;;;;;;;;;;20.45;58.44;101582.81;7411290;19;1292;-65
2022/10/30 00:18:17;;;;;;;;;;;;;;;20.43;58.54;101576.69;7412245;19;1047;-65
2022/10/30 00:20:45;;;;;;;;;;;;;;;20.43;58.55;101579.38;7409477;19;1765;-65
2022/10/30 00:23:13;;;;;;;;;;;;;;;20.45;58.32;101572.06;7410029;19;1572;-65
2022/10/30 00:25:42;;;;;;;;;;;;;;;20.45;58.48;101572.94;7408955;19;1627;-65
2022/10/30 00:28:13;;;;;;;;;;;;;;;20.42;58.55;101567.78;7409315;19;1356;-65
2022/10/30 00:30:41;;;;;;;;;;;;;;;20.44;58.56;101570.38;7409157;19;1845;-65
2022/10/30 00:33:09;;;;;;;;;;;;;;;20.43;58.40;101569.53;7409131;19;1549;-66
2022/10/30 00:35:38;;;;;;;;;;;;;;;20.39;58.26;101556.44;7408471;19;1344;-65
2022/10/30 00:38:06;;;;;;;;;;;;;;;20.40;58.46;101559.00;7409391;19;1509;-65
2022/10/30 00:40:34;;;;;;;;;;;;;;;20.40;58.52;101555.47;7410785;19;1602;-66
2022/10/30 00:43:02;;;;;;;;;;;;;;;20.38;58.79;101554.75;7409671;19;1445;-66
2022/10/30 00:45:33;;;;;;;;;;;;;;;20.38;58.33;101557.44;7410132;19;1367;-65
2022/10/30 00:48:03;;;;;;;;;;;;;;;20.38;58.29;101544.00;7409983;19;1624;-65
2022/10/30 00:50:33;;;;;;;;;;;;;;;20.42;58.45;101558.88;7407616;19;1860;-65
2022/10/30 00:53:03;;;;;;;;;;;;;;;20.39;58.52;101546.56;7408866;19;1436;-65
2022/10/30 00:55:33;;;;;;;;;;;;;;;20.37;58.42;101548.53;7409473;19;1581;-65
2022/10/30 00:58:03;;;;;;;;;;;;;;;20.40;58.71;101550.09;7407910;19;1428;-65
2022/10/30 01:00:35;;;;;;;;;;;;;;;20.39;58.67;101556.44;7408311;19;1516;-65
2022/10/30 01:03:04;;;;;;;;;;;;;;;20.85;57.80;101536.56;7407369;19;1538;-66
2022/10/30 01:05:34;;;;;;;;;;;;;;;21.40;56.15;101556.03;7407548;19;1592;-66
2022/10/30 01:08:02;;;;;;;;;;;;;;;21.71;55.62;101545.34;7404618;19;1488;-66
2022/10/30 01:10:31;;;;;;;;;;;;;;;21.71;55.57;101534.59;7407140;19;1866;-66
2022/10/30 01:13:00;;;;;;;;;;;;;;;21.30;56.43;101533.59;7408716;19;1304;-65
2022/10/30 01:15:32;;;;;;;;;;;;;;;21.43;56.59;101531.59;7408770;19;1382;-65
2022/10/30 01:18:22;;;;;;;;;;;;;;;21.82;55.50;101526.38;7408675;19;1655;-66
2022/10/30 01:21:01;;;;;;;;;;;;;;;22.30;54.38;101513.25;7409171;19;1739;-66
2022/10/30 01:23:37;;;;;;;;;;;;;;;22.52;53.87;101531.00;7409352;19;1754;-66
2022/10/30 01:26:09;;;;;;;;;;;;;;;21.99;54.75;101532.13;7406353;19;1793;-66
2022/10/30 01:28:45;;;;;;;;;;;;;;;21.51;56.58;101527.41;7408462;19;1552;-65
2022/10/30 01:31:18;;;;;;;;;;;;;;;21.51;56.46;101532.78;7405721;19;1850;-65
2022/10/30 01:33:55;;;;;;;;;;;;;;;21.84;56.00;101531.66;7408104;19;1572;-65
2022/10/30 01:36:26;;;;;;;;;;;;;;;22.33;54.68;101518.38;7407240;19;1288;-65
2022/10/30 01:38:56;;;;;;;;;;;;;;;22.44;54.21;101524.47;7408253;19;1063;-65
2022/10/30 01:41:24;;;;;;;;;;;;;;;21.96;55.13;101529.72;7407353;19;1675;-66
2022/10/30 01:43:56;;;;;;;;;;;;;;;21.53;56.38;101514.66;7407348;19;1708;-66
2022/10/30 01:46:49;;;;;;;;;;;;;;;21.49;56.68;101505.13;7407171;19;1320;-65
2022/10/30 01:49:32;;;;;;;;;;;;;;;21.88;55.74;101508.00;7405683;19;1868;-65
2022/10/30 01:52:08;;;;;;;;;;;;;;;21.83;55.98;101503.88;7405637;19;1538;-65
2022/10/30 01:54:39;;;;;;;;;;;;;;;21.53;56.81;101498.53;7405177;19;1315;-65
2022/10/30 01:57:11;;;;;;;;;;;;;;;21.50;56.96;101482.63;7404526;19;1371;-66
2022/10/30 01:59:41;;;;;;;;;;;;;;;21.87;55.81;101495.53;7404035;19;1637;-65
2022/10/30 02:02:10;;;;;;;;;;;;;;;22.01;55.70;101492.47;7405915;19;1356;-65
2022/10/30 02:04:41;;;;;;;;;;;;;;;21.79;55.93;101502.44;7405279;19;1650;-65
2022/10/30 02:07:10;;;;;;;;;;;;;;;21.52;56.84;101483.34;7406133;19;1510;-66
2022/10/30 02:09:38;;;;;;;;;;;;;;;21.56;56.65;101495.53;7404312;19;1849;-66
2022/10/30 02:12:07;;;;;;;;;;;;;;;21.84;56.16;101492.13;7405068;19;1352;-65
2022/10/30 02:14:37;;;;;;;;;;;;;;;22.12;55.55;101505.78;7405591;19;1343;-65
2022/10/30 02:17:07;;;;;;;;;;;;;;;21.77;56.04;101482.03;7404269;19;1687;-66
2022/10/30 02:19:35;;;;;;;;;;;;;;;21.58;56.41;101482.81;7402573;19;1332;-65
2022/10/30 02:22:06;;;;;;;;;;;;;;;21.51;56.97;101481.66;7403102;19;1434;-65
2022/10/30 02:24:35;;;;;;;;;;;;;;;21.81;56.29;101497.78;7405688;19;1336;-65
2022/10/30 02:27:03;;;;;;;;;;;;;;;22.00;55.57;101485.34;7403676;19;1303;-65
2022/10/30 02:29:31;;;;;;;;;;;;;;;21.76;56.29;101491.94;7405833;19;1846;-65
2022/10/30 02:32:00;;;;;;;;;;;;;;;21.55;56.66;101494.69;7405725;19;1765;-66
2022/10/30 02:34:28;;;;;;;;;;;;;;;21.61;56.73;101491.47;7404960;19;1529;-65
2022/10/30 02:36:56;;;;;;;;;;;;;;;21.95;55.87;101487.63;7404658;19;1600;-66
2022/10/30 02:39:27;;;;;;;;;;;;;;;21.98;55.86;101481.94;7402832;19;1329;-66
2022/10/30 02:42:00;;;;;;;;;;;;;;;21.75;56.07;101487.56;7404948;19;1358;-66
2022/10/30 02:44:29;;;;;;;;;;;;;;;21.58;56.54;101501.66;7405806;19;1315;-65
2022/10/30 02:46:57;;;;;;;;;;;;;;;21.63;56.67;101499.41;7402127;19;1227;-65
2022/10/30 02:49:25;;;;;;;;;;;;;;;21.93;55.94;101498.53;7402619;19;1515;-65
2022/10/30 02:51:53;;;;;;;;;;;;;;;22.00;55.62;101496.13;7401892;19;1846;-66
2022/10/30 02:54:23;;;;;;;;;;;;;;;21.78;56.06;101492.66;7405710;19;1619;-66
2022/10/30 02:56:54;;;;;;;;;;;;;;;21.62;56.55;101486.94;7403848;19;1492;-66
2022/10/30 02:59:22;;;;;;;;;;;;;;;21.61;56.87;101496.00;7402667;19;1750;-65
2022/10/30 03:01:50;;;;;;;;;;;;;;;21.94;55.93;101477.81;7401379;19;1628;-66
2022/10/30 03:04:18;;;;;;;;;;;;;;;21.96;55.93;101482.06;7400878;19;1514;-70
2022/10/30 03:06:47;;;;;;;;;;;;;;;21.79;56.35;101480.91;7402573;19;1595;-68
2022/10/30 03:09:17;;;;;;;;;;;;;;;21.54;57.13;101482.22;7404418;19;1000;-67
2022/10/30 03:11:45;;;;;;;;;;;;;;;21.66;57.31;101461.44;7402033;19;1858;-65
2022/10/30 03:14:16;;;;;;;;;;;;;;;21.92;56.73;101467.19;7403218;19;1658;-65
2022/10/30 03:16:45;;;;;;;;;;;;;;;21.76;57.37;101462.31;7401317;19;1711;-65
2022/10/30 03:19:13;;;;;;;;;;;;;;;21.55;57.55;101462.41;7402584;19;1623;-66
2022/10/30 03:21:41;;;;;;;;;;;;;;;21.45;58.04;101473.13;7403241;19;1352;-65
2022/10/30 03:24:10;;;;;;;;;;;;;;;21.68;57.52;101462.16;7401338;19;1466;-66
2022/10/30 03:26:38;;;;;;;;;;;;;;;21.96;56.80;101457.84;7402965;19;1561;-66
2022/10/30 03:29:06;;;;;;;;;;;;;;;21.82;57.39;101469.84;7400370;19;1625;-66
2022/10/30 03:31:37;;;;;;;;;;;;;;;21.60;57.93;101453.91;7401458;19;1851;-66
2022/10/30 03:34:06;;;;;;;;;;;;;;;21.39;58.55;101472.78;7410546;19;1352;-66
2022/10/30 03:36:34;;;;;;;;;;;;;;;21.71;57.43;101461.91;7410772;19;1521;-66
2022/10/30 03:39:02;;;;;;;;;;;;;;;21.96;56.83;101446.22;7410100;19;1280;-66
2022/10/30 03:41:31;;;;;;;;;;;;;;;21.85;57.08;101457.97;7407424;19;1446;-66
2022/10/30 03:43:59;;;;;;;;;;;;;;;21.58;57.75;101459.44;7410485;19;1640;-67
2022/10/30 03:46:29;;;;;;;;;;;;;;;21.40;58.51;101472.63;7409831;19;1604;-68
2022/10/30 03:49:00;;;;;;;;;;;;;;;21.61;57.99;101453.78;7410609;19;1611;-67
2022/10/30 03:51:28;;;;;;;;;;;;;;;22.06;56.71;101465.94;7407526;19;1845;-67
2022/10/30 03:53:57;;;;;;;;;;;;;;;21.94;57.42;101461.66;7407570;19;1366;-68
2022/10/30 03:56:25;;;;;;;;;;;;;;;21.67;57.68;101473.94;7407438;19;1674;-67
2022/10/30 03:58:53;;;;;;;;;;;;;;;21.43;58.41;101460.81;7406933;19;1526;-67
2022/10/30 04:01:21;;;;;;;;;;;;;;;21.64;58.01;101441.88;7406347;19;1498;-67
2022/10/30 04:03:50;;;;;;;;;;;;;;;22.02;56.71;101451.06;7408033;19;1286;-68
2022/10/30 04:06:21;;;;;;;;;;;;;;;21.91;57.35;101451.19;7408652;19;1641;-66
2022/10/30 04:08:49;;;;;;;;;;;;;;;21.63;57.77;101454.50;7410225;19;1300;-65
2022/10/30 04:11:17;;;;;;;;;;;;;;;21.44;58.51;101449.88;7407100;19;1865;-65
2022/10/30 04:13:46;;;;;;;;;;;;;;;21.67;57.86;101446.16;7408070;19;1313;-65
2022/10/30 04:16:14;;;;;;;;;;;;;;;21.97;57.17;101448.78;7407712;19;1353;-65
2022/10/30 04:18:42;;;;;;;;;;;;;;;21.92;57.32;101445.63;7408702;19;1493;-66
2022/10/30 04:21:11;;;;;;;;;;;;;;;21.63;57.85;101432.97;7408757;19;1516;-65
2022/10/30 04:23:41;;;;;;;;;;;;;;;21.43;58.61;101440.13;7409692;19;1269;-66
2022/10/30 04:26:10;;;;;;;;;;;;;;;21.56;58.35;101444.41;7406518;19;1648;-66
2022/10/30 04:28:38;;;;;;;;;;;;;;;21.90;57.51;101438.69;7408211;19;1317;-66
2022/10/30 04:31:06;;;;;;;;;;;;;;;21.90;57.60;101449.47;7406965;19;1856;-65
2022/10/30 04:33:35;;;;;;;;;;;;;;;21.66;58.16;101447.97;7406681;19;1521;-66
2022/10/30 04:36:03;;;;;;;;;;;;;;;21.45;58.62;101442.69;7403968;19;1370;-66
2022/10/30 04:38:32;;;;;;;;;;;;;;;21.59;58.39;101450.38;7407813;19;1337;-68
2022/10/30 04:41:02;;;;;;;;;;;;;;;21.94;57.36;101440.97;7405770;19;1636;-70
2022/10/30 04:43:31;;;;;;;;;;;;;;;21.83;58.10;101436.56;7407021;19;1576;-67
2022/10/30 04:45:59;;;;;;;;;;;;;;;21.63;58.77;101434.81;7404410;19;1747;-68
2022/10/30 04:48:27;;;;;;;;;;;;;;;21.54;59.21;101446.38;7408974;19;1362;-67
2022/10/30 04:50:56;;;;;;;;;;;;;;;21.48;59.25;101450.47;7406646;19;1845;-66
2022/10/30 04:53:24;;;;;;;;;;;;;;;21.42;59.75;101457.19;7406525;19;1767;-68
2022/10/30 04:55:54;;;;;;;;;;;;;;;21.33;59.94;101455.34;7405911;19;1375;-69
2022/10/30 04:58:25;;;;;;;;;;;;;;;21.30;59.55;101436.75;7405545;19;1513;-67
2022/10/30 05:00:54;;;;;;;;;;;;;;;21.23;60.35;101443.69;7403655;19;1374;-68
2022/10/30 05:03:23;;;;;;;;;;;;;;;21.28;59.98;101446.81;7405839;19;1454;-67
2022/10/30 05:05:58;;;;;;;;;;;;;;;21.17;60.35;101452.25;7407196;19;1330;-67
2022/10/30 05:08:27;;;;;;;;;;;;;;;21.17;60.07;101466.56;7407797;19;1016;-67
2022/10/30 05:10:55;;;;;;;;;;;;;;;21.14;60.45;101449.84;7403569;19;1853;-67
2022/10/30 05:13:27;;;;;;;;;;;;;;;21.06;60.57;101459.41;7406321;19;1188;-66
2022/10/30 05:15:56;;;;;;;;;;;;;;;21.01;60.48;101464.34;7406443;19;1437;-66
2022/10/30 05:18:24;;;;;;;;;;;;;;;21.02;60.81;101455.28;7405751;19;1106;-66
2022/10/30 05:20:52;;;;;;;;;;;;;;;21.01;60.89;101458.97;7406356;19;1690;-66
2022/10/30 05:23:21;;;;;;;;;;;;;;;21.00;60.90;101470.72;7405681;19;1683;-67
2022/10/30 05:25:49;;;;;;;;;;;;;;;20.99;60.92;101463.63;7405706;19;1421;-67
2022/10/30 05:28:18;;;;;;;;;;;;;;;20.98;61.10;101472.66;7381978;19;13860;-70
2022/10/30 05:30:49;;;;;;;;;;;;;;;21.02;60.74;101468.75;7402103;19;1829;-70
2022/10/30 05:33:17;;;;;;;;;;;;;;;21.16;60.76;101477.47;7404124;19;1350;-70
2022/10/30 05:35:45;;;;;;;;;;;;;;;21.67;59.67;101476.63;7406435;19;1452;-67
2022/10/30 05:38:14;;;;;;;;;;;;;;;21.77;59.06;101474.81;7404571;19;1356;-70
2022/10/30 05:40:42;;;;;;;;;;;;;;;21.49;59.96;101470.16;7405948;19;1364;-70
2022/10/30 05:43:11;;;;;;;;;;;;;;;21.83;59.52;101479.66;7405831;19;1380;-69
2022/10/30 05:45:40;;;;;;;;;;;;;;;22.20;57.95;101487.13;7406563;19;1178;-74
2022/10/30 05:48:11;;;;;;;;;;;;;;;21.94;58.93;101485.91;7406837;19;1307;-75
2022/10/30 05:50:39;;;;;;;;;;;;;;;21.72;59.51;101482.44;7404842;19;1819;-73
2022/10/30 05:53:08;;;;;;;;;;;;;;;21.56;59.47;101487.47;7405291;19;1299;-75
2022/10/30 05:55:37;;;;;;;;;;;;;;;21.44;60.26;101490.25;7406052;19;1439;-73
2022/10/30 05:58:06;;;;;;;;;;;;;;;21.52;57.75;101477.97;7404171;19;1535;-73
2022/10/30 06:00:38;;;;;;;;;;;;;;;21.51;59.73;101471.75;7405185;19;1594;-68
2022/10/30 06:03:07;;;;;;;;;;;;;;;21.03;50.36;101481.22;7407227;19;1438;-74
2022/10/30 06:05:38;;;;;;;;;;;;;;;21.06;54.97;101478.25;7402449;19;1734;-78
2022/10/30 06:08:08;;;;;;;;;;;;;;;21.24;56.01;101483.03;7406125;19;998;-73
2022/10/30 06:10:37;;;;;;;;;;;;;;;21.31;56.93;101483.34;7405286;19;1337;-70
2022/10/30 06:13:06;;;;;;;;;;;;;;;21.28;56.73;101483.63;7403506;19;1841;-72
2022/10/30 06:15:34;;;;;;;;;;;;;;;21.11;53.65;101466.22;7405542;19;1620;-70
2022/10/30 06:18:03;;;;;;;;;;;;;;;21.03;52.36;101473.16;7405904;19;1584;-73
2022/10/30 06:20:32;;;;;;;;;;;;;;;21.01;52.06;101472.44;7403918;19;1683;-71
2022/10/30 06:23:03;;;;;;;;;;;;;;;20.94;51.25;101479.31;7405552;19;1535;-75
2022/10/30 06:25:33;;;;;;;;;;;;;;;21.73;52.36;101486.84;7405870;19;1734;-73
2022/10/30 06:28:01;;;;;;;;;;;;;;;21.91;52.05;101478.13;7404248;19;1165;-75
2022/10/30 06:30:30;;;;;;;;;;;;;;;22.00;52.53;101479.97;7400576;19;1422;-73
2022/10/30 06:32:59;;;;;;;;;;;;;;;21.67;53.44;101473.09;7402931;19;1861;-75
2022/10/30 06:35:28;;;;;;;;;;;;;;;21.50;53.68;101471.88;7406311;19;1575;-74
2022/10/30 06:37:59;;;;;;;;;;;;;;;21.31;53.55;101477.94;7403881;19;1408;-75
2022/10/30 06:40:31;;;;;;;;;;;;;;;21.23;54.05;101465.19;7405208;19;1571;-75
2022/10/30 06:42:59;;;;;;;;;;;;;;;21.15;54.56;101471.25;7402836;19;1615;-67
2022/10/30 06:45:27;;;;;;;;;;;;;;;21.16;54.55;101472.09;7405623;19;1323;-71
2022/10/30 06:47:55;;;;;;;;;;;;;;;21.12;54.34;101468.78;7403782;19;1716;-73
2022/10/30 06:50:24;;;;;;;;;;;;;;;21.16;54.19;101472.09;7403710;19;1581;-77
2022/10/30 06:52:54;;;;;;;;;;;;;;;21.12;54.82;101467.97;7403257;19;1879;-76
2022/10/30 06:55:22;;;;;;;;;;;;;;;21.08;54.90;101459.28;7407124;19;1619;-72
2022/10/30 06:57:57;;;;;;;;;;;;;;;21.06;54.86;101456.72;7405841;19;1616;-77
2022/10/30 07:00:26;;;;;;;;;;;;;;;21.06;54.71;101480.09;7406576;19;1442;-74
2022/10/30 07:03:00;;;;;;;;;;;;;;;21.07;55.02;101454.91;7404088;19;1442;-77
2022/10/30 07:05:29;;;;;;;;;;;;;;;21.12;54.92;101454.50;7404494;19;1446;-76
2022/10/30 07:07:59;;;;;;;;;;;;;;;21.10;55.00;101434.97;7411020;19;1608;-73
2022/10/30 07:10:27;;;;;;;;;;;;;;;21.09;55.44;101441.31;7413343;19;1441;-69
2022/10/30 07:12:59;;;;;;;;;;;;;;;21.06;56.12;101454.03;7410397;19;1865;-78
2022/10/30 07:15:27;;;;;;;;;;;;;;;21.08;56.38;101451.22;7409717;19;1228;-75
2022/10/30 07:18:00;;;;;;;;;;;;;;;21.05;57.15;101451.50;7410656;19;1662;-78
2022/10/30 07:20:30;;;;;;;;;;;;;;;21.11;57.19;101444.72;7408219;19;1448;-74
2022/10/30 07:22:58;;;;;;;;;;;;;;;21.08;56.91;101455.75;7411638;19;1576;-73
2022/10/30 07:25:27;;;;;;;;;;;;;;;21.05;57.41;101452.34;7409204;19;1506;-77
2022/10/30 07:27:56;;;;;;;;;;;;;;;21.13;56.98;101448.13;7406947;19;1557;-67
2022/10/30 07:30:28;;;;;;;;;;;;;;;21.12;57.16;101446.44;7290575;19;13445;-74
2022/10/30 07:33:00;;;;;;;;;;;;;;;21.14;57.16;101434.56;7408732;19;1862;-71
2022/10/30 07:35:28;;;;;;;;;;;;;;;21.23;57.32;101451.75;7411134;19;1384;-76
2022/10/30 07:37:57;;;;;;;;;;;;;;;21.28;57.50;101452.19;7411133;19;1475;-69
2022/10/30 07:40:25;;;;;;;;;;;;;;;21.24;57.42;101456.97;7411041;19;1171;-74
2022/10/30 07:42:57;;;;;;;;;;;;;;;21.22;57.70;101450.88;7409194;19;1329;-69
2022/10/30 07:45:29;;;;;;;;;;;;;;;21.19;57.59;101459.22;7411955;19;1285;-70
2022/10/30 07:47:57;;;;;;;;;;;;;;;21.21;57.79;101453.72;7411057;19;1371;-71
2022/10/30 07:50:26;;;;;;;;;;;;;;;21.24;57.66;101450.75;7411748;19;1468;-71
2022/10/30 07:52:55;;;;;;;;;;;;;;;21.23;57.93;101454.44;7408269;19;1874;-74
2022/10/30 07:55:23;;;;;;;;;;;;;;;21.19;57.83;101453.00;7408412;19;1671;-72
2022/10/30 07:57:52;;;;;;;;;;;;;;;21.23;57.98;101447.22;7410183;19;1436;-73
2022/10/30 08:00:20;;;;;;;;;;;;;;;21.32;57.57;101448.25;7408383;19;1259;-76
2022/10/30 08:02:53;;;;;;;;;;;;;;;21.32;58.09;101442.00;7406350;19;1371;-73
2022/10/30 08:05:23;;;;;;;;;;;;;;;21.28;58.38;101443.25;7409491;19;1503;-70
2022/10/30 08:07:51;;;;;;;;;;;;;;;21.21;58.38;101434.91;7410847;19;1058;-72
2022/10/30 08:10:19;;;;;;;;;;;;;;;21.34;58.26;101443.56;7409417;19;1505;-72
2022/10/30 08:12:48;;;;;;;;;;;;;;;21.30;58.30;101415.22;7409292;19;1839;-76
2022/10/30 08:15:16;;;;;;;;;;;;;;;21.29;58.16;101416.25;7410792;19;1042;-73
2022/10/30 08:17:45;;;;;;;;;;;;;;;21.26;58.46;101416.50;7406599;19;1649;-73
2022/10/30 08:20:17;;;;;;;;;;;;;;;21.25;58.70;101414.81;7410373;19;1388;-74
2022/10/30 08:22:46;;;;;;;;;;;;;;;21.30;58.30;101411.69;7409772;19;1546;-76
2022/10/30 08:25:15;;;;;;;;;;;;;;;21.31;58.70;101411.56;7406167;19;1492;-71
2022/10/30 08:27:50;;;;;;;;;;;;;;;21.33;58.71;101423.06;7410132;19;1537;-73
2022/10/30 08:30:19;;;;;;;;;;;;;;;21.36;58.72;101395.84;7409453;19;1328;-76
2022/10/30 08:32:47;;;;;;;;;;;;;;;21.34;58.88;101405.91;7407472;19;1848;-70
2022/10/30 08:35:18;;;;;;;;;;;;;;;21.36;58.85;101395.84;7408560;19;1435;-71
2022/10/30 08:37:46;;;;;;;;;;;;;;;21.50;58.97;101396.53;7408305;19;1849;-68
2022/10/30 08:40:14;;;;;;;;;;;;;;;21.48;58.44;101395.81;7406331;19;1641;-69
2022/10/30 08:42:43;;;;;;;;;;;;;;;21.41;59.10;101385.56;7407118;19;1540;-76
2022/10/30 08:45:12;;;;;;;;;;;;;;;21.40;59.11;101391.91;7409005;19;1412;-71
2022/10/30 08:47:40;;;;;;;;;;;;;;;21.48;59.08;101383.19;7404647;19;1413;-73
2022/10/30 08:50:09;;;;;;;;;;;;;;;21.44;59.10;101385.28;7406656;19;1625;-69
2022/10/30 08:52:40;;;;;;;;;;;;;;;21.50;59.27;101380.38;7404631;19;1854;-72
2022/10/30 08:55:09;;;;;;;;;;;;;;;21.40;59.20;101381.16;7406242;19;1455;-65
2022/10/30 08:57:38;;;;;;;;;;;;;;;21.49;59.23;101384.03;7408631;19;1624;-68
2022/10/30 09:00:07;;;;;;;;;;;;;;;21.44;59.08;101371.84;7406727;19;1476;-70
2022/10/30 09:02:38;;;;;;;;;;;;;;;21.47;59.32;101368.06;7404214;19;1442;-69
2022/10/30 09:05:06;;;;;;;;;;;;;;;21.50;59.18;101364.22;7407904;19;1612;-70
2022/10/30 09:07:35;;;;;;;;;;;;;;;21.47;59.13;101359.97;7406920;19;1279;-65
2022/10/30 09:10:06;;;;;;;;;;;;;;;21.49;59.20;101351.75;7407529;19;1406;-72
2022/10/30 09:12:34;;;;;;;;;;;;;;;21.52;59.28;101356.88;7405532;19;1849;-70
2022/10/30 09:15:02;;;;;;;;;;;;;;;21.49;58.76;101343.66;7406655;19;1404;-71
2022/10/30 09:17:31;;;;;;;;;;;;;;;21.58;58.41;101340.16;7404842;19;1440;-64
2022/10/30 09:19:59;;;;;;;;;;;;;;;21.54;58.80;101350.34;7405029;19;1320;-70
2022/10/30 09:22:27;;;;;;;;;;;;;;;21.62;58.86;101353.19;7405473;19;1264;-66
2022/10/30 09:24:56;;;;;;;;;;;;;;;21.64;58.93;101336.91;7403790;19;1640;-68
2022/10/30 09:27:27;;;;;;;;;;;;;;;21.60;59.03;101336.34;7403762;19;1253;-64
2022/10/30 09:29:55;;;;;;;;;;;;;;;21.58;58.89;101332.09;7404480;19;1356;-64
2022/10/30 09:32:23;;;;;;;;;;;;;;;21.50;59.02;101338.16;7404202;19;1845;-66
2022/10/30 09:34:51;;;;;;;;;;;;;;;21.49;59.34;101335.59;7404947;19;1055;-64
2022/10/30 09:37:20;;;;;;;;;;;;;;;21.57;58.61;101339.31;7403401;19;1307;-65
2022/10/30 09:39:48;;;;;;;;;;;;;;;21.62;58.18;101330.81;7398529;19;1652;-65
2022/10/30 09:42:24;;;;;;;;;;;;;;;21.59;57.43;101328.44;7403608;19;1513;-65
2022/10/30 09:45:00;;;;;;;;;;;;;;;21.53;58.18;101332.50;7406310;19;947;-64
2022/10/30 09:47:35;;;;;;;;;;;;;;;21.65;58.77;101330.56;7402641;19;1667;-64
2022/10/30 09:50:18;;;;;;;;;;;;;;;21.63;59.72;101336.06;7404615;19;1619;-64
2022/10/30 09:52:51;;;;;;;;;;;;;;;21.50;59.78;101322.00;7397566;19;1877;-65
2022/10/30 09:55:27;;;;;;;;;;;;;;;21.54;60.23;101327.97;7396058;19;1159;-64
2022/10/30 09:57:59;;;;;;;;;;;;;;;21.48;61.43;101329.38;7404053;19;1507;-64
2022/10/30 10:00:33;;;;;;;;;;;;;;;21.42;61.62;101324.50;7404975;19;1525;-63
2022/10/30 10:03:10;;;;;;;;;;;;;;;21.41;61.31;101329.06;7402536;19;1213;-64
2022/10/30 10:05:42;;;;;;;;;;;;;;;21.42;61.11;101314.59;7399875;19;1374;-64
2022/10/30 10:08:13;;;;;;;;;;;;;;;21.50;61.34;101323.88;7405517;19;1565;-64
2022/10/30 10:10:44;;;;;;;;;;;;;;;21.42;61.64;101311.91;7403665;19;1656;-63
2022/10/30 10:13:19;;;;;;;;;;;;;;;21.38;61.57;101317.72;7402526;19;1865;-63
2022/10/30 10:15:51;;;;;;;;;;;;;;;21.35;61.40;101307.25;7403760;19;1036;-64
2022/10/30 10:18:20;;;;;;;;;;;;;;;21.53;60.98;101320.91;7404468;19;1459;-63
2022/10/30 10:20:51;;;;;;;;;;;;;;;21.58;60.43;101307.88;7403755;19;1794;-61
2022/10/30 10:23:20;;;;;;;;;;;;;;;21.66;58.06;101299.94;7404780;19;1813;-66
2022/10/30 10:25:54;;;;;;;;;;;;;;;21.76;59.24;101308.88;7402391;19;1727;-65
2022/10/30 10:28:33;;;;;;;;;;;;;;;21.62;60.00;101288.59;7403175;19;1679;-66
2022/10/30 10:31:09;;;;;;;;;;;;;;;21.76;60.99;101294.56;7402335;19;1543;-65
2022/10/30 10:33:47;;;;;;;;;;;;;;;21.81;61.02;101281.53;7402675;19;1843;-64
2022/10/30 10:36:24;;;;;;;;;;;;;;;21.82;61.13;101281.38;7402375;19;1510;-66
2022/10/30 10:38:58;;;;;;;;;;;;;;;21.74;61.77;101283.09;7401303;19;1257;-64
2022/10/30 10:41:32;;;;;;;;;;;;;;;21.80;62.00;101285.22;7398352;19;1549;-70
2022/10/30 10:47:02;;;;;;;;;;;;;;;21.71;61.42;101257.31;7399045;19;1805;-69
2022/10/30 10:49:41;;;;;;;;;;;;;;;21.55;59.82;101265.94;7404652;19;1440;-70
2022/10/30 10:52:11;;;;;;;;;;;;;;;21.59;60.64;101271.91;7404363;19;1598;-66
2022/10/30 10:54:43;;;;;;;;;;;;;;;21.61;60.20;101257.31;7407595;19;1853;-68
2022/10/30 10:57:18;;;;;;;;;;;;;;;21.65;59.84;101257.88;7403736;19;1549;-68
2022/10/30 10:59:47;;;;;;;;;;;;;;;21.61;60.92;101259.16;7411446;19;1664;-61
2022/10/30 11:02:30;;;;;;;;;;;;;;;21.57;60.76;101249.66;7410579;19;1773;-63
2022/10/30 11:05:03;;;;;;;;;;;;;;;21.63;60.95;101235.66;7410530;19;1451;-65
2022/10/30 11:07:33;;;;;;;;;;;;;;;21.69;60.29;101231.53;7405570;19;1715;-63
2022/10/30 11:10:01;;;;;;;;;;;;;;;21.73;60.44;101252.63;7410677;19;1509;-63
2022/10/30 11:12:31;;;;;;;;;;;;;;;21.74;60.23;101215.78;7409103;19;1850;-61
2022/10/30 11:15:00;;;;;;;;;;;;;;;21.74;60.34;101227.41;7406375;19;1283;-62
2022/10/30 11:17:30;;;;;;;;;;;;;;;21.76;60.47;101224.56;7405296;19;1632;-60
2022/10/30 11:20:01;;;;;;;;;;;;;;;21.80;60.23;101223.28;7402071;19;1500;-60
2022/10/30 11:22:35;;;;;;;;;;;;;;;21.75;60.30;101218.34;7299263;19;14761;-61
2022/10/30 11:25:19;;;;;;;;;;;;;;;21.77;60.79;101226.28;7405527;19;1283;-62
2022/10/30 11:27:49;;;;;;;;;;;;;;;21.75;60.85;101206.75;7405752;19;1712;-61
2022/10/30 11:30:22;;;;;;;;;;;;;;;21.65;61.07;101199.50;7408826;19;1549;-61
2022/10/30 11:32:50;;;;;;;;;;;;;;;21.53;61.70;101203.34;7408234;19;1866;-61
2022/10/30 11:35:19;;;;;;;;;;;;;;;21.57;61.43;101179.69;7408554;19;1451;-62
2022/10/30 11:37:51;;;;;;;;;;;;;;;21.63;61.68;101197.97;7408042;19;1440;-60
2022/10/30 11:40:21;;;;;;;;;;;;;;;21.58;61.34;101181.38;7403325;19;1644;-60
2022/10/30 11:42:51;;;;;;;;;;;;;;;21.59;61.34;101180.41;7408396;19;1627;-61
2022/10/30 11:45:21;;;;;;;;;;;;;;;21.64;61.12;101178.13;7406079;19;1547;-66
2022/10/30 11:47:50;;;;;;;;;;;;;;;21.63;60.66;101176.44;7406512;19;1359;-63
2022/10/30 11:50:20;;;;;;;;;;;;;;;21.71;59.55;101175.72;7402131;19;1432;-60
2022/10/30 11:52:52;;;;;;;;;;;;;;;21.83;58.79;101166.50;7404837;19;1842;-60
2022/10/30 11:55:22;;;;;;;;;;;;;;;21.92;58.98;101154.00;7406708;19;1877;-60
2022/10/30 11:57:51;;;;;;;;;;;;;;;22.01;59.97;101164.75;7406787;19;1273;-61
2022/10/30 12:00:21;;;;;;;;;;;;;;;22.05;60.04;101165.31;7407962;19;1551;-60
2022/10/30 12:02:53;;;;;;;;;;;;;;;21.97;60.93;101170.56;7403696;19;1550;-60
2022/10/30 12:05:36;;;;;;;;;;;;;;;22.00;60.59;101156.81;7406343;19;1490;-60
2022/10/30 12:08:23;;;;;;;;;;;;;;;22.10;61.08;101151.38;7407176;19;1626;-60
2022/10/30 12:11:02;;;;;;;;;;;;;;;22.18;60.78;101148.81;7405376;19;1708;-60
2022/10/30 12:13:34;;;;;;;;;;;;;;;22.19;62.32;101159.44;7399164;19;1858;-61
2022/10/30 12:16:11;;;;;;;;;;;;;;;22.23;62.30;101158.16;7405769;19;1543;-65
2022/10/30 12:18:39;;;;;;;;;;;;;;;22.20;62.02;101153.06;7403182;19;1413;-69
2022/10/30 12:21:08;;;;;;;;;;;;;;;22.23;61.90;101152.75;7403403;19;1507;-74
2022/10/30 12:23:40;;;;;;;;;;;;;;;22.31;63.03;101143.97;7398362;19;1656;-64
2022/10/30 12:26:12;;;;;;;;;;;;;;;22.29;62.34;101158.59;7404427;19;1405;-64
2022/10/30 12:28:41;;;;;;;;;;;;;;;22.23;61.92;101147.38;7401645;19;1479;-64
2022/10/30 12:31:12;;;;;;;;;;;;;;;22.32;62.65;101151.06;7404043;19;1531;-68
2022/10/30 12:33:44;;;;;;;;;;;;;;;22.18;62.35;101149.69;7404879;19;1854;-69
2022/10/30 12:36:15;;;;;;;;;;;;;;;22.26;62.91;101146.25;7403790;19;1531;-66
2022/10/30 12:38:48;;;;;;;;;;;;;;;22.29;61.85;101150.53;7406668;19;1631;-63
2022/10/30 12:41:19;;;;;;;;;;;;;;;22.20;62.41;101155.75;7404640;19;1601;-66
2022/10/30 12:43:54;;;;;;;;;;;;;;;22.12;63.28;101142.16;7404210;19;1662;-69
2022/10/30 12:46:29;;;;;;;;;;;;;;;21.65;62.78;101077.56;7402742;19;1660;-75
2022/10/30 12:49:03;;;;;;;;;;;;;;;22.15;62.61;101141.03;7404102;19;1489;-68
2022/10/30 12:51:35;;;;;;;;;;;;;;;22.02;61.55;101138.66;7397982;19;979;-69
2022/10/30 12:54:09;;;;;;;;;;;;;;;21.98;62.33;101139.94;7403508;19;1838;-69
2022/10/30 12:56:39;;;;;;;;;;;;;;;21.91;62.58;101137.00;7407378;19;1833;-67
2022/10/30 12:59:22;;;;;;;;;;;;;;;21.72;62.67;101137.88;7403876;19;1775;-67
2022/10/30 13:01:53;;;;;;;;;;;;;;;21.60;62.33;101122.88;7405917;19;1722;-68
2022/10/30 13:04:23;;;;;;;;;;;;;;;21.54;62.01;101128.84;7403724;19;1677;-67
2022/10/30 13:06:54;;;;;;;;;;;;;;;21.50;61.52;101146.25;7405402;19;1760;-67